sensor_id;sensor_type;location;lat;lon;timestamp;P1;durP1;ratioP1;P2;durP2;ratioP2
12601;SDS011;30282;16.436;99.370;2022-12-15T00:02:40;53.93;;;36.30;;
12601;SDS011;30282;16.436;99.370;2022-12-15T00:05:26;63.87;;;36.63;;
12601;SDS011;30282;16.436;99.370;2022-12-15T00:08:11;66.53;;;38.10;;
12601;SDS011;30282;16.436;99.370;2022-12-15T00:11:05;55.77;;;36.70;;
12601;SDS011;30282;16.436;99.370;2022-12-15T00:13:51;62.13;;;36.73;;
12601;SDS011;30282;16.436;99.370;2022-12-15T00:16:37;51.00;;;34.03;;
12601;SDS011;30282;16.436;99.370;2022-12-15T00:19:22;58.10;;;38.20;;
12601;SDS011;30282;16.436;99.370;2022-12-15T00:22:08;56.13;;;38.07;;
12601;SDS011;30282;16.436;99.370;2022-12-15T00:24:53;64.23;;;36.20;;
12601;SDS011;30282;16.436;99.370;2022-12-15T00:27:40;55.87;;;38.00;;
12601;SDS011;30282;16.436;99.370;2022-12-15T00:30:26;55.30;;;36.07;;
12601;SDS011;30282;16.436;99.370;2022-12-15T00:33:12;63.57;;;41.30;;
12601;SDS011;30282;16.436;99.370;2022-12-15T00:35:58;65.93;;;40.30;;
12601;SDS011;30282;16.436;99.370;2022-12-15T00:38:43;87.93;;;48.77;;
12601;SDS011;30282;16.436;99.370;2022-12-15T00:41:14;67.47;;;44.27;;
12601;SDS011;30282;16.436;99.370;2022-12-15T00:43:48;56.47;;;39.30;;
12601;SDS011;30282;16.436;99.370;2022-12-15T00:46:17;48.90;;;35.23;;
12601;SDS011;30282;16.436;99.370;2022-12-15T00:49:03;45.73;;;34.93;;
12601;SDS011;30282;16.436;99.370;2022-12-15T00:51:53;52.57;;;34.83;;
12601;SDS011;30282;16.436;99.370;2022-12-15T00:54:39;51.63;;;34.93;;
12601;SDS011;30282;16.436;99.370;2022-12-15T00:57:24;53.37;;;35.90;;
12601;SDS011;30282;16.436;99.370;2022-12-15T01:00:12;52.63;;;38.00;;
12601;SDS011;30282;16.436;99.370;2022-12-15T01:02:58;60.03;;;37.10;;
12601;SDS011;30282;16.436;99.370;2022-12-15T01:05:44;62.53;;;40.37;;
12601;SDS011;30282;16.436;99.370;2022-12-15T01:08:29;59.00;;;37.77;;
12601;SDS011;30282;16.436;99.370;2022-12-15T01:11:15;68.63;;;40.27;;
12601;SDS011;30282;16.436;99.370;2022-12-15T01:14:00;57.90;;;38.10;;
12601;SDS011;30282;16.436;99.370;2022-12-15T01:16:48;57.20;;;38.50;;
12601;SDS011;30282;16.436;99.370;2022-12-15T01:19:34;54.87;;;37.63;;
12601;SDS011;30282;16.436;99.370;2022-12-15T01:22:20;60.83;;;39.90;;
12601;SDS011;30282;16.436;99.370;2022-12-15T01:24:49;50.70;;;35.27;;
12601;SDS011;30282;16.436;99.370;2022-12-15T01:27:19;49.27;;;36.20;;
12601;SDS011;30282;16.436;99.370;2022-12-15T01:29:48;50.00;;;37.60;;
12601;SDS011;30282;16.436;99.370;2022-12-15T01:32:18;46.60;;;33.77;;
12601;SDS011;30282;16.436;99.370;2022-12-15T01:34:48;50.23;;;35.23;;
12601;SDS011;30282;16.436;99.370;2022-12-15T01:37:17;60.07;;;36.67;;
12601;SDS011;30282;16.436;99.370;2022-12-15T01:39:46;54.43;;;35.60;;
12601;SDS011;30282;16.436;99.370;2022-12-15T01:42:32;51.93;;;34.07;;
12601;SDS011;30282;16.436;99.370;2022-12-15T01:48:32;46.07;;;33.97;;
12601;SDS011;30282;16.436;99.370;2022-12-15T01:54:01;46.23;;;33.77;;
12601;SDS011;30282;16.436;99.370;2022-12-15T01:56:36;50.60;;;34.13;;
12601;SDS011;30282;16.436;99.370;2022-12-15T01:59:10;48.77;;;34.53;;
12601;SDS011;30282;16.436;99.370;2022-12-15T02:01:41;50.40;;;35.87;;
12601;SDS011;30282;16.436;99.370;2022-12-15T02:04:13;52.93;;;33.73;;
12601;SDS011;30282;16.436;99.370;2022-12-15T02:06:44;55.17;;;35.33;;
12601;SDS011;30282;16.436;99.370;2022-12-15T02:09:13;50.47;;;34.37;;
12601;SDS011;30282;16.436;99.370;2022-12-15T02:11:45;49.27;;;32.47;;
12601;SDS011;30282;16.436;99.370;2022-12-15T02:14:24;41.57;;;31.90;;
12601;SDS011;30282;16.436;99.370;2022-12-15T02:17:07;50.33;;;33.10;;
12601;SDS011;30282;16.436;99.370;2022-12-15T02:22:59;49.17;;;33.80;;
12601;SDS011;30282;16.436;99.370;2022-12-15T02:25:54;43.60;;;31.83;;
12601;SDS011;30282;16.436;99.370;2022-12-15T02:28:44;44.27;;;34.13;;
12601;SDS011;30282;16.436;99.370;2022-12-15T02:31:26;44.57;;;31.97;;
12601;SDS011;30282;16.436;99.370;2022-12-15T02:34:13;45.10;;;30.80;;
12601;SDS011;30282;16.436;99.370;2022-12-15T02:36:46;59.13;;;34.07;;
12601;SDS011;30282;16.436;99.370;2022-12-15T02:39:19;47.90;;;33.07;;
12601;SDS011;30282;16.436;99.370;2022-12-15T02:41:49;48.57;;;33.43;;
12601;SDS011;30282;16.436;99.370;2022-12-15T02:44:20;53.37;;;33.67;;
12601;SDS011;30282;16.436;99.370;2022-12-15T02:47:09;59.40;;;41.23;;
12601;SDS011;30282;16.436;99.370;2022-12-15T02:49:56;61.17;;;34.10;;
12601;SDS011;30282;16.436;99.370;2022-12-15T02:52:41;55.07;;;34.17;;
12601;SDS011;30282;16.436;99.370;2022-12-15T02:55:18;49.97;;;31.30;;
12601;SDS011;30282;16.436;99.370;2022-12-15T02:57:59;51.80;;;32.70;;
12601;SDS011;30282;16.436;99.370;2022-12-15T03:00:33;43.93;;;29.70;;
12601;SDS011;30282;16.436;99.370;2022-12-15T03:03:08;42.00;;;29.13;;
12601;SDS011;30282;16.436;99.370;2022-12-15T03:05:38;45.17;;;29.30;;
12601;SDS011;30282;16.436;99.370;2022-12-15T03:08:08;44.37;;;28.97;;
12601;SDS011;30282;16.436;99.370;2022-12-15T03:10:38;40.80;;;30.47;;
12601;SDS011;30282;16.436;99.370;2022-12-15T03:13:07;43.63;;;29.00;;
12601;SDS011;30282;16.436;99.370;2022-12-15T03:15:38;49.43;;;28.17;;
12601;SDS011;30282;16.436;99.370;2022-12-15T03:18:11;53.97;;;29.43;;
12601;SDS011;30282;16.436;99.370;2022-12-15T03:20:40;50.47;;;28.10;;
12601;SDS011;30282;16.436;99.370;2022-12-15T03:23:10;45.80;;;28.13;;
12601;SDS011;30282;16.436;99.370;2022-12-15T03:25:39;53.07;;;28.90;;
12601;SDS011;30282;16.436;99.370;2022-12-15T03:28:08;44.33;;;28.63;;
12601;SDS011;30282;16.436;99.370;2022-12-15T03:30:37;46.30;;;30.17;;
12601;SDS011;30282;16.436;99.370;2022-12-15T03:33:06;43.33;;;29.83;;
12601;SDS011;30282;16.436;99.370;2022-12-15T03:35:37;44.67;;;27.40;;
12601;SDS011;30282;16.436;99.370;2022-12-15T03:38:07;42.93;;;27.20;;
12601;SDS011;30282;16.436;99.370;2022-12-15T03:40:36;38.70;;;27.33;;
12601;SDS011;30282;16.436;99.370;2022-12-15T03:43:05;49.40;;;29.17;;
12601;SDS011;30282;16.436;99.370;2022-12-15T03:45:34;32.93;;;25.13;;
12601;SDS011;30282;16.436;99.370;2022-12-15T03:48:03;41.53;;;26.07;;
12601;SDS011;30282;16.436;99.370;2022-12-15T03:50:32;41.20;;;26.23;;
12601;SDS011;30282;16.436;99.370;2022-12-15T03:53:03;41.00;;;27.40;;
12601;SDS011;30282;16.436;99.370;2022-12-15T03:55:34;48.60;;;27.40;;
12601;SDS011;30282;16.436;99.370;2022-12-15T03:58:03;49.07;;;28.67;;
12601;SDS011;30282;16.436;99.370;2022-12-15T04:00:33;37.27;;;24.77;;
12601;SDS011;30282;16.436;99.370;2022-12-15T04:03:02;38.40;;;25.30;;
12601;SDS011;30282;16.436;99.370;2022-12-15T04:05:31;41.93;;;27.27;;
12601;SDS011;30282;16.436;99.370;2022-12-15T04:08:04;47.10;;;24.07;;
12601;SDS011;30282;16.436;99.370;2022-12-15T04:10:33;41.07;;;26.30;;
12601;SDS011;30282;16.436;99.370;2022-12-15T04:13:04;35.40;;;24.47;;
12601;SDS011;30282;16.436;99.370;2022-12-15T04:15:34;33.80;;;23.83;;
12601;SDS011;30282;16.436;99.370;2022-12-15T04:18:08;38.20;;;23.93;;
12601;SDS011;30282;16.436;99.370;2022-12-15T04:20:37;33.87;;;22.73;;
12601;SDS011;30282;16.436;99.370;2022-12-15T04:23:08;35.87;;;24.73;;
12601;SDS011;30282;16.436;99.370;2022-12-15T04:25:37;37.67;;;23.57;;
12601;SDS011;30282;16.436;99.370;2022-12-15T04:28:23;43.13;;;24.40;;
12601;SDS011;30282;16.436;99.370;2022-12-15T04:31:09;36.57;;;23.80;;
12601;SDS011;30282;16.436;99.370;2022-12-15T04:33:58;42.67;;;23.87;;
12601;SDS011;30282;16.436;99.370;2022-12-15T04:36:49;38.40;;;23.93;;
12601;SDS011;30282;16.436;99.370;2022-12-15T04:39:39;33.37;;;23.57;;
12601;SDS011;30282;16.436;99.370;2022-12-15T04:42:26;42.40;;;23.63;;
12601;SDS011;30282;16.436;99.370;2022-12-15T04:45:13;38.40;;;22.77;;
12601;SDS011;30282;16.436;99.370;2022-12-15T04:48:01;38.83;;;24.73;;
12601;SDS011;30282;16.436;99.370;2022-12-15T04:50:46;39.03;;;24.03;;
12601;SDS011;30282;16.436;99.370;2022-12-15T04:53:32;41.20;;;24.50;;
12601;SDS011;30282;16.436;99.370;2022-12-15T04:56:19;37.50;;;23.20;;
12601;SDS011;30282;16.436;99.370;2022-12-15T04:59:05;37.63;;;24.30;;
12601;SDS011;30282;16.436;99.370;2022-12-15T05:01:50;44.53;;;23.27;;
12601;SDS011;30282;16.436;99.370;2022-12-15T05:04:36;33.80;;;23.30;;
12601;SDS011;30282;16.436;99.370;2022-12-15T05:07:23;38.33;;;23.47;;
12601;SDS011;30282;16.436;99.370;2022-12-15T05:10:09;34.60;;;24.23;;
12601;SDS011;30282;16.436;99.370;2022-12-15T05:12:58;33.40;;;22.20;;
12601;SDS011;30282;16.436;99.370;2022-12-15T05:15:47;31.13;;;22.50;;
12601;SDS011;30282;16.436;99.370;2022-12-15T05:18:33;28.13;;;21.97;;
12601;SDS011;30282;16.436;99.370;2022-12-15T05:21:18;32.67;;;22.73;;
12601;SDS011;30282;16.436;99.370;2022-12-15T05:24:04;41.67;;;24.30;;
12601;SDS011;30282;16.436;99.370;2022-12-15T05:26:50;34.10;;;22.97;;
12601;SDS011;30282;16.436;99.370;2022-12-15T05:29:37;32.73;;;22.10;;
12601;SDS011;30282;16.436;99.370;2022-12-15T05:32:22;36.40;;;21.77;;
12601;SDS011;30282;16.436;99.370;2022-12-15T05:34:51;33.93;;;23.23;;
12601;SDS011;30282;16.436;99.370;2022-12-15T05:37:20;36.80;;;23.13;;
12601;SDS011;30282;16.436;99.370;2022-12-15T05:39:50;31.47;;;23.77;;
12601;SDS011;30282;16.436;99.370;2022-12-15T05:42:19;42.67;;;24.77;;
12601;SDS011;30282;16.436;99.370;2022-12-15T05:44:49;33.17;;;23.67;;
12601;SDS011;30282;16.436;99.370;2022-12-15T05:47:18;38.23;;;22.80;;
12601;SDS011;30282;16.436;99.370;2022-12-15T05:49:48;37.13;;;23.87;;
12601;SDS011;30282;16.436;99.370;2022-12-15T05:52:17;45.30;;;23.70;;
12601;SDS011;30282;16.436;99.370;2022-12-15T05:54:46;27.80;;;20.73;;
12601;SDS011;30282;16.436;99.370;2022-12-15T05:57:16;32.90;;;22.20;;
12601;SDS011;30282;16.436;99.370;2022-12-15T05:59:45;32.93;;;21.43;;
12601;SDS011;30282;16.436;99.370;2022-12-15T06:02:16;37.73;;;23.17;;
12601;SDS011;30282;16.436;99.370;2022-12-15T06:04:45;36.13;;;21.53;;
12601;SDS011;30282;16.436;99.370;2022-12-15T06:07:14;33.00;;;21.83;;
12601;SDS011;30282;16.436;99.370;2022-12-15T06:09:43;37.03;;;22.10;;
12601;SDS011;30282;16.436;99.370;2022-12-15T06:12:13;54.13;;;22.03;;
12601;SDS011;30282;16.436;99.370;2022-12-15T06:14:43;30.50;;;22.30;;
12601;SDS011;30282;16.436;99.370;2022-12-15T06:17:12;37.43;;;22.07;;
12601;SDS011;30282;16.436;99.370;2022-12-15T06:19:42;39.27;;;22.10;;
12601;SDS011;30282;16.436;99.370;2022-12-15T06:22:12;35.60;;;21.47;;
12601;SDS011;30282;16.436;99.370;2022-12-15T06:24:41;33.77;;;21.90;;
12601;SDS011;30282;16.436;99.370;2022-12-15T06:27:10;35.50;;;22.23;;
12601;SDS011;30282;16.436;99.370;2022-12-15T06:29:39;32.60;;;22.70;;
12601;SDS011;30282;16.436;99.370;2022-12-15T06:32:08;34.60;;;22.57;;
12601;SDS011;30282;16.436;99.370;2022-12-15T06:34:37;34.20;;;20.90;;
12601;SDS011;30282;16.436;99.370;2022-12-15T06:37:08;39.83;;;23.83;;
12601;SDS011;30282;16.436;99.370;2022-12-15T06:39:37;34.20;;;21.43;;
12601;SDS011;30282;16.436;99.370;2022-12-15T06:42:07;32.37;;;22.33;;
12601;SDS011;30282;16.436;99.370;2022-12-15T06:44:36;37.17;;;20.97;;
12601;SDS011;30282;16.436;99.370;2022-12-15T06:47:05;32.10;;;20.97;;
12601;SDS011;30282;16.436;99.370;2022-12-15T06:49:34;32.00;;;21.83;;
12601;SDS011;30282;16.436;99.370;2022-12-15T06:52:03;33.40;;;21.50;;
12601;SDS011;30282;16.436;99.370;2022-12-15T06:54:35;35.20;;;21.13;;
12601;SDS011;30282;16.436;99.370;2022-12-15T06:57:04;37.23;;;22.87;;
12601;SDS011;30282;16.436;99.370;2022-12-15T06:59:33;36.60;;;22.67;;
12601;SDS011;30282;16.436;99.370;2022-12-15T07:02:03;33.83;;;20.63;;
12601;SDS011;30282;16.436;99.370;2022-12-15T07:04:41;30.67;;;20.80;;
12601;SDS011;30282;16.436;99.370;2022-12-15T07:07:10;35.20;;;20.93;;
12601;SDS011;30282;16.436;99.370;2022-12-15T07:09:41;26.53;;;19.33;;
12601;SDS011;30282;16.436;99.370;2022-12-15T07:12:11;25.57;;;20.53;;
12601;SDS011;30282;16.436;99.370;2022-12-15T07:14:40;31.07;;;20.07;;
12601;SDS011;30282;16.436;99.370;2022-12-15T07:17:10;33.83;;;20.80;;
12601;SDS011;30282;16.436;99.370;2022-12-15T07:19:40;30.23;;;20.20;;
12601;SDS011;30282;16.436;99.370;2022-12-15T07:22:09;33.73;;;19.60;;
12601;SDS011;30282;16.436;99.370;2022-12-15T07:24:38;28.30;;;20.67;;
12601;SDS011;30282;16.436;99.370;2022-12-15T07:27:08;32.60;;;20.50;;
12601;SDS011;30282;16.436;99.370;2022-12-15T07:29:37;29.50;;;20.80;;
12601;SDS011;30282;16.436;99.370;2022-12-15T07:32:06;27.93;;;20.30;;
12601;SDS011;30282;16.436;99.370;2022-12-15T07:34:35;34.07;;;21.00;;
12601;SDS011;30282;16.436;99.370;2022-12-15T07:37:05;32.37;;;20.90;;
12601;SDS011;30282;16.436;99.370;2022-12-15T07:39:34;26.00;;;19.00;;
12601;SDS011;30282;16.436;99.370;2022-12-15T07:42:03;32.20;;;19.17;;
12601;SDS011;30282;16.436;99.370;2022-12-15T07:44:34;34.40;;;19.53;;
12601;SDS011;30282;16.436;99.370;2022-12-15T07:47:03;28.50;;;18.20;;
12601;SDS011;30282;16.436;99.370;2022-12-15T07:49:32;30.93;;;18.87;;
12601;SDS011;30282;16.436;99.370;2022-12-15T07:52:02;26.40;;;19.00;;
12601;SDS011;30282;16.436;99.370;2022-12-15T07:54:31;30.37;;;19.67;;
12601;SDS011;30282;16.436;99.370;2022-12-15T07:57:00;22.90;;;18.27;;
12601;SDS011;30282;16.436;99.370;2022-12-15T07:59:30;34.93;;;18.67;;
12601;SDS011;30282;16.436;99.370;2022-12-15T08:02:01;23.97;;;17.93;;
12601;SDS011;30282;16.436;99.370;2022-12-15T08:04:31;28.20;;;20.10;;
12601;SDS011;30282;16.436;99.370;2022-12-15T08:07:00;33.80;;;20.83;;
12601;SDS011;30282;16.436;99.370;2022-12-15T08:09:29;33.80;;;20.07;;
12601;SDS011;30282;16.436;99.370;2022-12-15T08:11:58;30.00;;;20.27;;
12601;SDS011;30282;16.436;99.370;2022-12-15T08:14:27;34.10;;;20.70;;
12601;SDS011;30282;16.436;99.370;2022-12-15T08:16:59;29.60;;;20.00;;
12601;SDS011;30282;16.436;99.370;2022-12-15T08:19:28;37.57;;;22.00;;
12601;SDS011;30282;16.436;99.370;2022-12-15T08:21:57;35.87;;;22.93;;
12601;SDS011;30282;16.436;99.370;2022-12-15T08:24:26;31.60;;;20.90;;
12601;SDS011;30282;16.436;99.370;2022-12-15T08:26:55;34.70;;;21.93;;
12601;SDS011;30282;16.436;99.370;2022-12-15T08:29:25;28.33;;;20.93;;
12601;SDS011;30282;16.436;99.370;2022-12-15T08:31:54;33.50;;;23.00;;
12601;SDS011;30282;16.436;99.370;2022-12-15T08:34:25;31.23;;;20.27;;
12601;SDS011;30282;16.436;99.370;2022-12-15T08:36:54;29.60;;;20.10;;
12601;SDS011;30282;16.436;99.370;2022-12-15T08:39:23;34.87;;;19.30;;
12601;SDS011;30282;16.436;99.370;2022-12-15T08:41:52;28.00;;;19.07;;
12601;SDS011;30282;16.436;99.370;2022-12-15T08:44:22;33.57;;;19.30;;
12601;SDS011;30282;16.436;99.370;2022-12-15T08:46:51;29.43;;;19.77;;
12601;SDS011;30282;16.436;99.370;2022-12-15T08:49:21;25.20;;;18.83;;
12601;SDS011;30282;16.436;99.370;2022-12-15T08:51:52;29.87;;;19.50;;
12601;SDS011;30282;16.436;99.370;2022-12-15T08:54:21;32.40;;;18.63;;
12601;SDS011;30282;16.436;99.370;2022-12-15T08:56:50;27.73;;;18.60;;
12601;SDS011;30282;16.436;99.370;2022-12-15T08:59:20;24.70;;;19.20;;
12601;SDS011;30282;16.436;99.370;2022-12-15T09:01:50;27.10;;;18.27;;
12601;SDS011;30282;16.436;99.370;2022-12-15T09:04:19;31.73;;;18.67;;
12601;SDS011;30282;16.436;99.370;2022-12-15T09:06:49;26.80;;;18.53;;
12601;SDS011;30282;16.436;99.370;2022-12-15T09:09:19;35.70;;;20.37;;
12601;SDS011;30282;16.436;99.370;2022-12-15T09:11:49;25.80;;;20.10;;
12601;SDS011;30282;16.436;99.370;2022-12-15T09:14:20;31.70;;;19.30;;
12601;SDS011;30282;16.436;99.370;2022-12-15T09:16:50;30.60;;;20.13;;
12601;SDS011;30282;16.436;99.370;2022-12-15T09:19:19;26.97;;;18.80;;
12601;SDS011;30282;16.436;99.370;2022-12-15T09:21:48;28.80;;;19.23;;
12601;SDS011;30282;16.436;99.370;2022-12-15T09:24:19;27.37;;;18.60;;
12601;SDS011;30282;16.436;99.370;2022-12-15T09:26:49;37.37;;;18.90;;
12601;SDS011;30282;16.436;99.370;2022-12-15T09:29:18;31.73;;;18.73;;
12601;SDS011;30282;16.436;99.370;2022-12-15T09:31:47;35.60;;;17.73;;
12601;SDS011;30282;16.436;99.370;2022-12-15T09:34:16;26.47;;;18.33;;
12601;SDS011;30282;16.436;99.370;2022-12-15T09:36:45;25.83;;;19.60;;
12601;SDS011;30282;16.436;99.370;2022-12-15T09:39:14;30.53;;;20.17;;
12601;SDS011;30282;16.436;99.370;2022-12-15T09:41:47;25.53;;;18.17;;
12601;SDS011;30282;16.436;99.370;2022-12-15T09:44:20;30.73;;;20.40;;
12601;SDS011;30282;16.436;99.370;2022-12-15T09:46:54;32.93;;;20.33;;
12601;SDS011;30282;16.436;99.370;2022-12-15T09:49:41;31.90;;;20.77;;
12601;SDS011;30282;16.436;99.370;2022-12-15T09:52:29;30.13;;;19.50;;
12601;SDS011;30282;16.436;99.370;2022-12-15T09:55:01;29.40;;;20.10;;
12601;SDS011;30282;16.436;99.370;2022-12-15T09:57:45;37.00;;;22.57;;
12601;SDS011;30282;16.436;99.370;2022-12-15T10:00:18;36.13;;;21.27;;
12601;SDS011;30282;16.436;99.370;2022-12-15T10:05:51;35.10;;;21.03;;
12601;SDS011;30282;16.436;99.370;2022-12-15T10:08:32;32.70;;;21.47;;
12601;SDS011;30282;16.436;99.370;2022-12-15T10:14:00;34.10;;;20.57;;
12601;SDS011;30282;16.436;99.370;2022-12-15T10:16:40;122.47;;;26.37;;
12601;SDS011;30282;16.436;99.370;2022-12-15T10:19:23;53.13;;;21.00;;
12601;SDS011;30282;16.436;99.370;2022-12-15T10:21:58;67.47;;;22.87;;
12601;SDS011;30282;16.436;99.370;2022-12-15T10:24:28;43.57;;;20.33;;
12601;SDS011;30282;16.436;99.370;2022-12-15T10:27:01;35.83;;;20.00;;
12601;SDS011;30282;16.436;99.370;2022-12-15T10:29:55;39.30;;;21.43;;
12601;SDS011;30282;16.436;99.370;2022-12-15T10:32:30;39.20;;;20.13;;
12601;SDS011;30282;16.436;99.370;2022-12-15T10:35:13;104.80;;;24.70;;
12601;SDS011;30282;16.436;99.370;2022-12-15T10:37:46;44.27;;;22.60;;
12601;SDS011;30282;16.436;99.370;2022-12-15T10:40:19;43.63;;;21.27;;
12601;SDS011;30282;16.436;99.370;2022-12-15T10:43:31;33.60;;;19.93;;
12601;SDS011;30282;16.436;99.370;2022-12-15T10:46:06;30.67;;;20.70;;
12601;SDS011;30282;16.436;99.370;2022-12-15T10:48:40;31.80;;;20.93;;
12601;SDS011;30282;16.436;99.370;2022-12-15T10:51:17;38.40;;;20.90;;
12601;SDS011;30282;16.436;99.370;2022-12-15T10:53:53;30.90;;;21.90;;
12601;SDS011;30282;16.436;99.370;2022-12-15T10:56:32;33.27;;;21.63;;
12601;SDS011;30282;16.436;99.370;2022-12-15T10:59:03;54.23;;;21.93;;
12601;SDS011;30282;16.436;99.370;2022-12-15T11:01:51;38.30;;;23.13;;
12601;SDS011;30282;16.436;99.370;2022-12-15T11:04:27;31.77;;;22.07;;
12601;SDS011;30282;16.436;99.370;2022-12-15T11:06:57;41.37;;;22.93;;
12601;SDS011;30282;16.436;99.370;2022-12-15T11:09:32;36.50;;;22.73;;
12601;SDS011;30282;16.436;99.370;2022-12-15T11:12:08;34.50;;;21.67;;
12601;SDS011;30282;16.436;99.370;2022-12-15T11:15:00;41.30;;;21.93;;
12601;SDS011;30282;16.436;99.370;2022-12-15T11:17:35;50.00;;;24.63;;
12601;SDS011;30282;16.436;99.370;2022-12-15T11:20:13;53.23;;;28.07;;
12601;SDS011;30282;16.436;99.370;2022-12-15T11:22:48;46.53;;;27.83;;
12601;SDS011;30282;16.436;99.370;2022-12-15T11:25:23;55.03;;;26.43;;
12601;SDS011;30282;16.436;99.370;2022-12-15T11:27:58;38.13;;;25.43;;
12601;SDS011;30282;16.436;99.370;2022-12-15T11:30:34;69.67;;;29.53;;
12601;SDS011;30282;16.436;99.370;2022-12-15T11:33:11;52.23;;;24.50;;
12601;SDS011;30282;16.436;99.370;2022-12-15T11:35:45;45.57;;;26.73;;
12601;SDS011;30282;16.436;99.370;2022-12-15T11:38:29;55.17;;;26.97;;
12601;SDS011;30282;16.436;99.370;2022-12-15T11:41:06;40.63;;;25.97;;
12601;SDS011;30282;16.436;99.370;2022-12-15T11:46:41;39.53;;;24.23;;
12601;SDS011;30282;16.436;99.370;2022-12-15T11:49:21;50.70;;;24.87;;
12601;SDS011;30282;16.436;99.370;2022-12-15T11:52:11;38.33;;;25.40;;
12601;SDS011;30282;16.436;99.370;2022-12-15T11:54:51;44.57;;;24.57;;
12601;SDS011;30282;16.436;99.370;2022-12-15T11:57:33;37.03;;;24.57;;
12601;SDS011;30282;16.436;99.370;2022-12-15T12:00:14;39.53;;;25.57;;
12601;SDS011;30282;16.436;99.370;2022-12-15T12:02:56;33.40;;;25.30;;
12601;SDS011;30282;16.436;99.370;2022-12-15T12:05:56;52.27;;;25.80;;
12601;SDS011;30282;16.436;99.370;2022-12-15T12:08:37;50.13;;;26.70;;
12601;SDS011;30282;16.436;99.370;2022-12-15T12:11:26;38.00;;;25.87;;
12601;SDS011;30282;16.436;99.370;2022-12-15T12:14:09;38.10;;;25.70;;
12601;SDS011;30282;16.436;99.370;2022-12-15T12:16:48;42.07;;;25.13;;
12601;SDS011;30282;16.436;99.370;2022-12-15T12:19:26;48.43;;;26.07;;
12601;SDS011;30282;16.436;99.370;2022-12-15T12:22:05;46.43;;;27.27;;
12601;SDS011;30282;16.436;99.370;2022-12-15T12:24:40;53.83;;;29.90;;
12601;SDS011;30282;16.436;99.370;2022-12-15T12:27:16;74.40;;;41.43;;
12601;SDS011;30282;16.436;99.370;2022-12-15T12:29:52;54.37;;;38.13;;
12601;SDS011;30282;16.436;99.370;2022-12-15T12:32:31;57.77;;;36.67;;
12601;SDS011;30282;16.436;99.370;2022-12-15T12:35:07;54.33;;;34.40;;
12601;SDS011;30282;16.436;99.370;2022-12-15T12:37:44;51.03;;;34.30;;
12601;SDS011;30282;16.436;99.370;2022-12-15T12:40:28;56.90;;;34.53;;
12601;SDS011;30282;16.436;99.370;2022-12-15T12:43:03;54.13;;;35.03;;
12601;SDS011;30282;16.436;99.370;2022-12-15T12:45:36;69.13;;;34.37;;
12601;SDS011;30282;16.436;99.370;2022-12-15T12:48:14;60.93;;;36.77;;
12601;SDS011;30282;16.436;99.370;2022-12-15T12:50:48;48.73;;;32.20;;
12601;SDS011;30282;16.436;99.370;2022-12-15T12:53:29;51.53;;;34.80;;
12601;SDS011;30282;16.436;99.370;2022-12-15T12:56:00;49.60;;;33.97;;
12601;SDS011;30282;16.436;99.370;2022-12-15T12:58:29;62.43;;;41.30;;
12601;SDS011;30282;16.436;99.370;2022-12-15T13:01:04;65.20;;;40.93;;
12601;SDS011;30282;16.436;99.370;2022-12-15T13:04:04;74.80;;;46.73;;
12601;SDS011;30282;16.436;99.370;2022-12-15T13:09:40;66.40;;;43.87;;
12601;SDS011;30282;16.436;99.370;2022-12-15T13:15:13;69.57;;;45.07;;
12601;SDS011;30282;16.436;99.370;2022-12-15T13:17:57;80.30;;;48.07;;
12601;SDS011;30282;16.436;99.370;2022-12-15T13:20:31;80.80;;;50.87;;
12601;SDS011;30282;16.436;99.370;2022-12-15T13:26:14;95.90;;;49.00;;
12601;SDS011;30282;16.436;99.370;2022-12-15T13:28:51;77.80;;;44.87;;
12601;SDS011;30282;16.436;99.370;2022-12-15T13:31:25;70.07;;;42.03;;
12601;SDS011;30282;16.436;99.370;2022-12-15T13:34:09;65.87;;;42.97;;
12601;SDS011;30282;16.436;99.370;2022-12-15T13:36:46;72.07;;;43.00;;
12601;SDS011;30282;16.436;99.370;2022-12-15T13:42:32;59.83;;;42.70;;
12601;SDS011;30282;16.436;99.370;2022-12-15T13:45:19;70.90;;;43.33;;
12601;SDS011;30282;16.436;99.370;2022-12-15T13:48:26;75.27;;;42.80;;
12601;SDS011;30282;16.436;99.370;2022-12-15T13:51:03;69.37;;;44.03;;
12601;SDS011;30282;16.436;99.370;2022-12-15T13:53:53;76.67;;;43.67;;
12601;SDS011;30282;16.436;99.370;2022-12-15T13:56:32;78.80;;;42.60;;
12601;SDS011;30282;16.436;99.370;2022-12-15T13:59:28;70.90;;;41.43;;
12601;SDS011;30282;16.436;99.370;2022-12-15T14:02:19;73.90;;;44.63;;
12601;SDS011;30282;16.436;99.370;2022-12-15T14:05:11;80.20;;;46.70;;
12601;SDS011;30282;16.436;99.370;2022-12-15T14:07:42;75.70;;;45.57;;
12601;SDS011;30282;16.436;99.370;2022-12-15T14:10:19;68.17;;;43.47;;
12601;SDS011;30282;16.436;99.370;2022-12-15T14:12:51;85.03;;;43.60;;
12601;SDS011;30282;16.436;99.370;2022-12-15T14:15:26;78.10;;;41.70;;
12601;SDS011;30282;16.436;99.370;2022-12-15T14:17:57;68.33;;;43.33;;
12601;SDS011;30282;16.436;99.370;2022-12-15T14:20:29;65.33;;;39.40;;
12601;SDS011;30282;16.436;99.370;2022-12-15T14:23:13;67.77;;;40.67;;
12601;SDS011;30282;16.436;99.370;2022-12-15T14:25:56;67.47;;;41.23;;
12601;SDS011;30282;16.436;99.370;2022-12-15T14:28:30;66.00;;;40.53;;
12601;SDS011;30282;16.436;99.370;2022-12-15T14:31:03;67.27;;;41.87;;
12601;SDS011;30282;16.436;99.370;2022-12-15T14:33:39;61.40;;;38.27;;
12601;SDS011;30282;16.436;99.370;2022-12-15T14:36:11;65.00;;;40.60;;
12601;SDS011;30282;16.436;99.370;2022-12-15T14:38:43;55.50;;;38.53;;
12601;SDS011;30282;16.436;99.370;2022-12-15T14:41:18;67.07;;;40.03;;
12601;SDS011;30282;16.436;99.370;2022-12-15T14:43:49;55.50;;;37.63;;
12601;SDS011;30282;16.436;99.370;2022-12-15T14:46:24;66.77;;;39.63;;
12601;SDS011;30282;16.436;99.370;2022-12-15T14:48:55;62.63;;;36.33;;
12601;SDS011;30282;16.436;99.370;2022-12-15T14:51:27;59.27;;;39.30;;
12601;SDS011;30282;16.436;99.370;2022-12-15T14:53:58;60.80;;;36.33;;
12601;SDS011;30282;16.436;99.370;2022-12-15T14:56:28;59.83;;;38.37;;
12601;SDS011;30282;16.436;99.370;2022-12-15T14:58:58;61.97;;;39.50;;
12601;SDS011;30282;16.436;99.370;2022-12-15T15:01:35;51.70;;;36.40;;
12601;SDS011;30282;16.436;99.370;2022-12-15T15:04:19;58.57;;;36.83;;
12601;SDS011;30282;16.436;99.370;2022-12-15T15:06:52;52.67;;;37.90;;
12601;SDS011;30282;16.436;99.370;2022-12-15T15:09:24;62.63;;;36.20;;
12601;SDS011;30282;16.436;99.370;2022-12-15T15:11:54;72.30;;;36.33;;
12601;SDS011;30282;16.436;99.370;2022-12-15T15:14:28;63.43;;;37.50;;
12601;SDS011;30282;16.436;99.370;2022-12-15T15:17:02;58.10;;;36.40;;
12601;SDS011;30282;16.436;99.370;2022-12-15T15:19:44;55.03;;;34.20;;
12601;SDS011;30282;16.436;99.370;2022-12-15T15:22:26;49.10;;;34.30;;
12601;SDS011;30282;16.436;99.370;2022-12-15T15:27:59;54.47;;;36.60;;
12601;SDS011;30282;16.436;99.370;2022-12-15T15:30:38;51.37;;;35.20;;
12601;SDS011;30282;16.436;99.370;2022-12-15T15:33:11;52.50;;;36.00;;